sensor_id;sensor_type;location;lat;lon;timestamp;pressure;altitude;pressure_sealevel;temperature;humidity
16821;BME280;8527;49.740;6.604;2023-02-22T00:03:38;99700.78;;;2.59;91.21
16821;BME280;8527;49.740;6.604;2023-02-22T00:08:39;99691.63;;;2.42;92.26
16821;BME280;8527;49.740;6.604;2023-02-22T00:13:38;99699.47;;;2.42;92.90
16821;BME280;8527;49.740;6.604;2023-02-22T00:18:46;99700.06;;;2.46;92.63
16821;BME280;8527;49.740;6.604;2023-02-22T00:23:48;99694.47;;;2.39;92.28
16821;BME280;8527;49.740;6.604;2023-02-22T00:28:51;99690.28;;;2.25;92.03
16821;BME280;8527;49.740;6.604;2023-02-22T00:33:50;99693.03;;;2.23;92.34
16821;BME280;8527;49.740;6.604;2023-02-22T00:38:57;99681.09;;;2.19;92.67
16821;BME280;8527;49.740;6.604;2023-02-22T00:43:55;99681.06;;;2.08;92.10
16821;BME280;8527;49.740;6.604;2023-02-22T00:49:01;99685.47;;;1.96;93.10
16821;BME280;8527;49.740;6.604;2023-02-22T00:54:03;99679.63;;;1.92;91.98
16821;BME280;8527;49.740;6.604;2023-02-22T00:59:01;99669.16;;;1.92;92.62
16821;BME280;8527;49.740;6.604;2023-02-22T01:04:00;99684.59;;;1.84;93.19
16821;BME280;8527;49.740;6.604;2023-02-22T01:09:07;99675.91;;;1.83;93.40
16821;BME280;8527;49.740;6.604;2023-02-22T01:14:05;99673.25;;;1.72;92.60
16821;BME280;8527;49.740;6.604;2023-02-22T01:19:06;99672.44;;;1.72;93.02
16821;BME280;8527;49.740;6.604;2023-02-22T01:24:10;99664.31;;;1.63;93.13
16821;BME280;8527;49.740;6.604;2023-02-22T01:29:15;99671.69;;;1.69;93.69
16821;BME280;8527;49.740;6.604;2023-02-22T01:34:16;99669.06;;;1.58;93.47
16821;BME280;8527;49.740;6.604;2023-02-22T01:39:20;99669.38;;;1.53;93.08
16821;BME280;8527;49.740;6.604;2023-02-22T01:44:23;99665.63;;;1.45;93.60
16821;BME280;8527;49.740;6.604;2023-02-22T01:49:23;99663.25;;;1.42;94.02
16821;BME280;8527;49.740;6.604;2023-02-22T01:54:34;99658.03;;;1.42;95.17
16821;BME280;8527;49.740;6.604;2023-02-22T01:59:37;99658.75;;;1.44;95.80
16821;BME280;8527;49.740;6.604;2023-02-22T02:04:40;99659.81;;;1.41;95.05
16821;BME280;8527;49.740;6.604;2023-02-22T02:09:46;99651.47;;;1.36;95.10
16821;BME280;8527;49.740;6.604;2023-02-22T02:14:45;99654.78;;;1.38;95.80
16821;BME280;8527;49.740;6.604;2023-02-22T02:19:48;99648.84;;;1.36;96.46
16821;BME280;8527;49.740;6.604;2023-02-22T02:30:46;99642.47;;;1.16;95.15
16821;BME280;8527;49.740;6.604;2023-02-22T02:35:57;99637.13;;;1.17;97.71
16821;BME280;8527;49.740;6.604;2023-02-22T02:41:04;99627.88;;;1.24;97.95
16821;BME280;8527;49.740;6.604;2023-02-22T02:46:07;99626.03;;;1.26;96.57
16821;BME280;8527;49.740;6.604;2023-02-22T02:51:12;99631.03;;;1.30;96.49
16821;BME280;8527;49.740;6.604;2023-02-22T02:56:12;99625.19;;;1.26;97.87
16821;BME280;8527;49.740;6.604;2023-02-22T03:01:12;99626.75;;;1.29;97.44
16821;BME280;8527;49.740;6.604;2023-02-22T03:12:13;99609.22;;;1.18;98.08
16821;BME280;8527;49.740;6.604;2023-02-22T03:17:22;99608.25;;;1.19;97.38
16821;BME280;8527;49.740;6.604;2023-02-22T03:22:23;99605.94;;;1.03;95.76
16821;BME280;8527;49.740;6.604;2023-02-22T03:27:33;99595.28;;;1.06;96.95
16821;BME280;8527;49.740;6.604;2023-02-22T03:32:42;99600.91;;;1.00;96.30
16821;BME280;8527;49.740;6.604;2023-02-22T03:37:45;99595.38;;;1.04;97.52
16821;BME280;8527;49.740;6.604;2023-02-22T03:43:01;99586.50;;;1.07;97.17
16821;BME280;8527;49.740;6.604;2023-02-22T03:48:10;99577.09;;;1.04;97.29
16821;BME280;8527;49.740;6.604;2023-02-22T03:53:21;99582.22;;;1.06;98.09
16821;BME280;8527;49.740;6.604;2023-02-22T03:58:30;99579.44;;;0.96;100.00
16821;BME280;8527;49.740;6.604;2023-02-22T04:03:35;99576.28;;;1.04;99.01
16821;BME280;8527;49.740;6.604;2023-02-22T04:08:41;99579.59;;;1.06;98.60
16821;BME280;8527;49.740;6.604;2023-02-22T04:13:42;99572.56;;;1.06;97.84
16821;BME280;8527;49.740;6.604;2023-02-22T04:18:41;99562.03;;;1.08;98.02
16821;BME280;8527;49.740;6.604;2023-02-22T04:23:45;99563.78;;;1.07;97.53
16821;BME280;8527;49.740;6.604;2023-02-22T04:28:49;99565.19;;;1.00;97.46
16821;BME280;8527;49.740;6.604;2023-02-22T04:33:47;99559.69;;;0.92;97.14
16821;BME280;8527;49.740;6.604;2023-02-22T04:38:47;99568.69;;;0.88;97.95
16821;BME280;8527;49.740;6.604;2023-02-22T04:43:49;99571.25;;;0.76;97.19
16821;BME280;8527;49.740;6.604;2023-02-22T04:48:47;99572.69;;;0.80;97.54
16821;BME280;8527;49.740;6.604;2023-02-22T04:53:50;99575.63;;;0.76;97.68
16821;BME280;8527;49.740;6.604;2023-02-22T04:58:54;99578.38;;;0.74;98.00
16821;BME280;8527;49.740;6.604;2023-02-22T05:03:56;99577.63;;;0.72;97.93
16821;BME280;8527;49.740;6.604;2023-02-22T05:08:55;99562.41;;;0.66;97.36
16821;BME280;8527;49.740;6.604;2023-02-22T05:13:59;99555.28;;;0.68;97.34
16821;BME280;8527;49.740;6.604;2023-02-22T05:19:05;99556.91;;;0.58;97.13
16821;BME280;8527;49.740;6.604;2023-02-22T05:24:04;99559.06;;;0.64;98.43
16821;BME280;8527;49.740;6.604;2023-02-22T05:29:08;99561.38;;;0.55;97.83
16821;BME280;8527;49.740;6.604;2023-02-22T05:34:06;99562.72;;;0.61;98.26
16821;BME280;8527;49.740;6.604;2023-02-22T05:39:05;99560.97;;;0.49;97.57
16821;BME280;8527;49.740;6.604;2023-02-22T05:44:06;99557.56;;;0.48;98.72
16821;BME280;8527;49.740;6.604;2023-02-22T05:49:22;99550.88;;;0.44;97.79
16821;BME280;8527;49.740;6.604;2023-02-22T05:54:20;99537.00;;;0.44;98.31
16821;BME280;8527;49.740;6.604;2023-02-22T05:59:21;99536.50;;;0.38;99.05
16821;BME280;8527;49.740;6.604;2023-02-22T06:04:20;99523.09;;;0.43;100.00
16821;BME280;8527;49.740;6.604;2023-02-22T06:09:22;99528.06;;;0.35;98.59
16821;BME280;8527;49.740;6.604;2023-02-22T06:14:23;99524.91;;;0.30;99.30
16821;BME280;8527;49.740;6.604;2023-02-22T06:19:22;99520.94;;;0.37;99.60
16821;BME280;8527;49.740;6.604;2023-02-22T06:24:25;99516.28;;;0.29;99.45
16821;BME280;8527;49.740;6.604;2023-02-22T06:29:29;99525.53;;;0.33;99.53
16821;BME280;8527;49.740;6.604;2023-02-22T06:34:30;99531.53;;;0.22;97.99
16821;BME280;8527;49.740;6.604;2023-02-22T06:39:32;99528.28;;;0.32;98.83
16821;BME280;8527;49.740;6.604;2023-02-22T06:44:33;99530.66;;;0.35;98.64
16821;BME280;8527;49.740;6.604;2023-02-22T06:49:31;99535.75;;;0.36;98.82
16821;BME280;8527;49.740;6.604;2023-02-22T06:54:32;99535.66;;;0.38;98.68
16821;BME280;8527;49.740;6.604;2023-02-22T06:59:34;99537.72;;;0.46;98.47
16821;BME280;8527;49.740;6.604;2023-02-22T07:04:32;99540.84;;;0.51;98.89
16821;BME280;8527;49.740;6.604;2023-02-22T07:09:31;99537.56;;;0.60;100.00
16821;BME280;8527;49.740;6.604;2023-02-22T07:14:29;99538.69;;;0.69;99.74
16821;BME280;8527;49.740;6.604;2023-02-22T07:19:31;99537.19;;;0.78;99.48
16821;BME280;8527;49.740;6.604;2023-02-22T07:24:30;99542.59;;;0.88;99.33
16821;BME280;8527;49.740;6.604;2023-02-22T07:29:37;99535.63;;;1.00;99.74
16821;BME280;8527;49.740;6.604;2023-02-22T07:34:40;99543.34;;;1.01;99.17
16821;BME280;8527;49.740;6.604;2023-02-22T07:39:38;99543.19;;;1.16;99.46
16821;BME280;8527;49.740;6.604;2023-02-22T07:44:38;99548.03;;;1.56;100.00
16821;BME280;8527;49.740;6.604;2023-02-22T07:49:44;99550.47;;;1.82;99.68
16821;BME280;8527;49.740;6.604;2023-02-22T07:54:45;99549.41;;;1.96;99.61
16821;BME280;8527;49.740;6.604;2023-02-22T07:59:44;99549.31;;;2.09;99.30
16821;BME280;8527;49.740;6.604;2023-02-22T08:04:46;99540.88;;;2.17;99.25
16821;BME280;8527;49.740;6.604;2023-02-22T08:09:44;99543.94;;;2.33;98.35
16821;BME280;8527;49.740;6.604;2023-02-22T08:14:42;99541.06;;;2.36;97.92
16821;BME280;8527;49.740;6.604;2023-02-22T08:19:41;99538.81;;;2.32;98.70
16821;BME280;8527;49.740;6.604;2023-02-22T08:24:42;99529.03;;;2.45;98.27
16821;BME280;8527;49.740;6.604;2023-02-22T08:29:40;99528.78;;;3.04;98.20
16821;BME280;8527;49.740;6.604;2023-02-22T08:34:42;99523.97;;;3.09;95.97
16821;BME280;8527;49.740;6.604;2023-02-22T08:39:43;99521.00;;;3.56;96.33
16821;BME280;8527;49.740;6.604;2023-02-22T08:44:41;99528.75;;;3.89;95.06
16821;BME280;8527;49.740;6.604;2023-02-22T08:49:45;99526.44;;;4.27;95.11
16821;BME280;8527;49.740;6.604;2023-02-22T08:54:47;99518.56;;;4.36;94.86
16821;BME280;8527;49.740;6.604;2023-02-22T08:59:53;99523.63;;;4.18;92.60
16821;BME280;8527;49.740;6.604;2023-02-22T09:04:51;99517.50;;;4.49;93.00
16821;BME280;8527;49.740;6.604;2023-02-22T09:09:52;99513.56;;;4.84;92.48
16821;BME280;8527;49.740;6.604;2023-02-22T09:14:50;99507.59;;;5.21;91.78
16821;BME280;8527;49.740;6.604;2023-02-22T09:19:51;99495.69;;;5.27;89.18
16821;BME280;8527;49.740;6.604;2023-02-22T09:24:56;99491.09;;;5.39;88.53
16821;BME280;8527;49.740;6.604;2023-02-22T09:29:57;99488.44;;;5.59;86.75
16821;BME280;8527;49.740;6.604;2023-02-22T09:34:56;99480.91;;;6.12;87.61
16821;BME280;8527;49.740;6.604;2023-02-22T09:39:57;99484.81;;;6.36;84.51
16821;BME280;8527;49.740;6.604;2023-02-22T09:45:01;99463.00;;;6.15;81.19
16821;BME280;8527;49.740;6.604;2023-02-22T09:50:03;99470.50;;;6.56;80.58
16821;BME280;8527;49.740;6.604;2023-02-22T09:55:22;99468.06;;;6.91;80.37
16821;BME280;8527;49.740;6.604;2023-02-22T10:00:28;99470.81;;;6.89;78.38
16821;BME280;8527;49.740;6.604;2023-02-22T10:05:33;99459.25;;;7.27;80.98
16821;BME280;8527;49.740;6.604;2023-02-22T10:10:38;99465.81;;;7.49;78.44
16821;BME280;8527;49.740;6.604;2023-02-22T10:15:49;99466.41;;;7.61;77.35
16821;BME280;8527;49.740;6.604;2023-02-22T10:20:55;99460.47;;;7.67;76.98
16821;BME280;8527;49.740;6.604;2023-02-22T10:26:03;99459.50;;;8.03;79.42
16821;BME280;8527;49.740;6.604;2023-02-22T10:31:15;99446.28;;;8.54;78.63
16821;BME280;8527;49.740;6.604;2023-02-22T10:36:21;99460.22;;;8.90;76.45
16821;BME280;8527;49.740;6.604;2023-02-22T10:41:25;99453.91;;;9.07;75.94
16821;BME280;8527;49.740;6.604;2023-02-22T10:46:30;99450.59;;;9.05;75.23
16821;BME280;8527;49.740;6.604;2023-02-22T10:51:31;99447.47;;;8.85;75.43
16821;BME280;8527;49.740;6.604;2023-02-22T10:56:46;99440.00;;;9.22;76.55
16821;BME280;8527;49.740;6.604;2023-02-22T11:01:45;99438.31;;;9.46;74.62
16821;BME280;8527;49.740;6.604;2023-02-22T11:06:45;99429.34;;;9.63;75.20
16821;BME280;8527;49.740;6.604;2023-02-22T11:11:49;99423.22;;;10.03;74.18
16821;BME280;8527;49.740;6.604;2023-02-22T11:16:56;99425.84;;;10.66;74.93
16821;BME280;8527;49.740;6.604;2023-02-22T11:21:57;99424.97;;;11.12;73.93
16821;BME280;8527;49.740;6.604;2023-02-22T11:27:01;99410.25;;;11.24;73.02
16821;BME280;8527;49.740;6.604;2023-02-22T11:32:11;99416.34;;;11.63;72.75
16821;BME280;8527;49.740;6.604;2023-02-22T11:37:28;99423.19;;;12.03;71.69
16821;BME280;8527;49.740;6.604;2023-02-22T11:42:31;99425.00;;;12.02;71.68
16821;BME280;8527;49.740;6.604;2023-02-22T11:47:29;99429.13;;;12.42;71.19
16821;BME280;8527;49.740;6.604;2023-02-22T11:52:38;99411.59;;;12.47;70.63
16821;BME280;8527;49.740;6.604;2023-02-22T11:57:54;99412.38;;;12.41;69.98
16821;BME280;8527;49.740;6.604;2023-02-22T12:03:25;99394.81;;;12.47;70.50
16821;BME280;8527;49.740;6.604;2023-02-22T12:08:33;99391.56;;;12.73;70.85
16821;BME280;8527;49.740;6.604;2023-02-22T12:13:50;99400.38;;;12.74;71.35
16821;BME280;8527;49.740;6.604;2023-02-22T12:19:07;99393.28;;;12.59;71.32
16821;BME280;8527;49.740;6.604;2023-02-22T12:24:17;99392.28;;;12.60;71.46
16821;BME280;8527;49.740;6.604;2023-02-22T12:29:25;99390.69;;;12.66;71.75
16821;BME280;8527;49.740;6.604;2023-02-22T12:34:29;99379.72;;;12.76;72.48
16821;BME280;8527;49.740;6.604;2023-02-22T12:39:38;99374.88;;;12.86;71.94
16821;BME280;8527;49.740;6.604;2023-02-22T12:44:49;99378.81;;;12.90;71.85
16821;BME280;8527;49.740;6.604;2023-02-22T12:49:54;99370.28;;;13.02;71.58
16821;BME280;8527;49.740;6.604;2023-02-22T12:55:00;99381.56;;;13.04;71.60
16821;BME280;8527;49.740;6.604;2023-02-22T13:00:06;99380.63;;;13.18;71.34
16821;BME280;8527;49.740;6.604;2023-02-22T13:05:13;99382.09;;;13.21;71.10
16821;BME280;8527;49.740;6.604;2023-02-22T13:10:22;99371.31;;;13.36;70.22
16821;BME280;8527;49.740;6.604;2023-02-22T13:15:35;99376.06;;;13.41;70.18
16821;BME280;8527;49.740;6.604;2023-02-22T13:20:43;99375.19;;;13.62;70.45
16821;BME280;8527;49.740;6.604;2023-02-22T13:25:48;99363.13;;;13.73;70.17
16821;BME280;8527;49.740;6.604;2023-02-22T13:31:05;99360.81;;;13.56;69.95
16821;BME280;8527;49.740;6.604;2023-02-22T13:36:19;99357.72;;;13.59;70.03
16821;BME280;8527;49.740;6.604;2023-02-22T13:41:45;99356.09;;;13.58;70.19
16821;BME280;8527;49.740;6.604;2023-02-22T13:47:09;99356.97;;;13.66;71.35
16821;BME280;8527;49.740;6.604;2023-02-22T13:52:15;99344.59;;;13.58;71.48
16821;BME280;8527;49.740;6.604;2023-02-22T13:57:20;99357.16;;;13.71;71.71
16821;BME280;8527;49.740;6.604;2023-02-22T14:03:00;99349.41;;;13.83;71.79
16821;BME280;8527;49.740;6.604;2023-02-22T14:08:06;99348.00;;;13.80;71.95
16821;BME280;8527;49.740;6.604;2023-02-22T14:13:05;99347.94;;;13.67;72.83
16821;BME280;8527;49.740;6.604;2023-02-22T14:18:18;99353.63;;;13.57;73.98
16821;BME280;8527;49.740;6.604;2023-02-22T14:23:33;99343.38;;;13.60;73.98
16821;BME280;8527;49.740;6.604;2023-02-22T14:28:38;99350.13;;;13.49;74.37
16821;BME280;8527;49.740;6.604;2023-02-22T14:33:56;99347.22;;;13.51;74.28
16821;BME280;8527;49.740;6.604;2023-02-22T14:39:02;99340.06;;;13.52;74.88
16821;BME280;8527;49.740;6.604;2023-02-22T14:44:03;99346.53;;;13.42;74.78
16821;BME280;8527;49.740;6.604;2023-02-22T14:49:16;99347.50;;;13.28;74.59
16821;BME280;8527;49.740;6.604;2023-02-22T14:54:23;99351.41;;;13.32;74.90
16821;BME280;8527;49.740;6.604;2023-02-22T14:59:27;99350.00;;;13.36;75.32
16821;BME280;8527;49.740;6.604;2023-02-22T15:04:34;99346.38;;;13.08;76.21
16821;BME280;8527;49.740;6.604;2023-02-22T15:09:36;99352.94;;;13.13;76.39
16821;BME280;8527;49.740;6.604;2023-02-22T15:14:36;99360.47;;;13.02;76.67
16821;BME280;8527;49.740;6.604;2023-02-22T15:19:43;99353.31;;;12.81;77.63
16821;BME280;8527;49.740;6.604;2023-02-22T15:24:46;99361.72;;;12.78;78.05
16821;BME280;8527;49.740;6.604;2023-02-22T15:29:57;99356.19;;;12.79;77.88
16821;BME280;8527;49.740;6.604;2023-02-22T15:35:17;99353.50;;;12.73;78.18
16821;BME280;8527;49.740;6.604;2023-02-22T15:40:19;99355.44;;;12.64;78.74
16821;BME280;8527;49.740;6.604;2023-02-22T15:45:30;99358.09;;;12.64;78.49
16821;BME280;8527;49.740;6.604;2023-02-22T15:50:33;99360.09;;;12.55;79.32
16821;BME280;8527;49.740;6.604;2023-02-22T15:55:39;99356.63;;;12.55;79.45
16821;BME280;8527;49.740;6.604;2023-02-22T16:00:42;99358.88;;;12.58;79.35
16821;BME280;8527;49.740;6.604;2023-02-22T16:05:51;99365.84;;;12.59;80.16
16821;BME280;8527;49.740;6.604;2023-02-22T16:11:01;99359.34;;;12.61;80.67
16821;BME280;8527;49.740;6.604;2023-02-22T16:16:05;99360.59;;;12.44;81.31
16821;BME280;8527;49.740;6.604;2023-02-22T16:21:21;99359.34;;;12.40;81.89
16821;BME280;8527;49.740;6.604;2023-02-22T16:26:23;99371.38;;;12.35;82.81
16821;BME280;8527;49.740;6.604;2023-02-22T16:31:25;99363.13;;;12.30;82.90
16821;BME280;8527;49.740;6.604;2023-02-22T16:36:42;99368.19;;;12.25;83.62
16821;BME280;8527;49.740;6.604;2023-02-22T16:41:41;99370.78;;;12.18;84.03
16821;BME280;8527;49.740;6.604;2023-02-22T16:46:44;99374.41;;;12.10;84.71
16821;BME280;8527;49.740;6.604;2023-02-22T16:51:48;99374.63;;;12.16;84.33
16821;BME280;8527;49.740;6.604;2023-02-22T16:56:51;99381.06;;;12.06;85.09
16821;BME280;8527;49.740;6.604;2023-02-22T17:01:51;99385.84;;;12.11;84.60
16821;BME280;8527;49.740;6.604;2023-02-22T17:06:55;99385.03;;;11.95;85.77
16821;BME280;8527;49.740;6.604;2023-02-22T17:12:00;99384.97;;;12.04;85.48
16821;BME280;8527;49.740;6.604;2023-02-22T17:17:02;99380.97;;;12.00;85.43
16821;BME280;8527;49.740;6.604;2023-02-22T17:22:03;99387.78;;;11.87;85.94
16821;BME280;8527;49.740;6.604;2023-02-22T17:27:06;99392.47;;;11.85;85.56
16821;BME280;8527;49.740;6.604;2023-02-22T17:32:04;99400.91;;;11.89;85.83
16821;BME280;8527;49.740;6.604;2023-02-22T17:37:05;99411.28;;;11.84;86.26
16821;BME280;8527;49.740;6.604;2023-02-22T17:42:04;99410.44;;;11.83;86.05
16821;BME280;8527;49.740;6.604;2023-02-22T17:47:02;99406.97;;;11.82;86.49
16821;BME280;8527;49.740;6.604;2023-02-22T17:52:09;99416.50;;;11.77;86.65
16821;BME280;8527;49.740;6.604;2023-02-22T17:57:09;99416.69;;;11.75;87.11
16821;BME280;8527;49.740;6.604;2023-02-22T18:02:09;99419.50;;;11.74;87.72
16821;BME280;8527;49.740;6.604;2023-02-22T18:07:10;99422.63;;;11.62;88.44
16821;BME280;8527;49.740;6.604;2023-02-22T18:12:13;99415.41;;;11.56;89.15
16821;BME280;8527;49.740;6.604;2023-02-22T18:17:11;99416.34;;;11.63;88.25
16821;BME280;8527;49.740;6.604;2023-02-22T18:22:12;99425.94;;;11.64;88.47
16821;BME280;8527;49.740;6.604;2023-02-22T18:27:11;99420.34;;;11.59;88.58
16821;BME280;8527;49.740;6.604;2023-02-22T18:32:11;99421.34;;;11.58;88.85
16821;BME280;8527;49.740;6.604;2023-02-22T18:37:12;99416.78;;;11.52;89.33
16821;BME280;8527;49.740;6.604;2023-02-22T18:42:14;99418.44;;;11.53;89.16
16821;BME280;8527;49.740;6.604;2023-02-22T18:47:19;99416.69;;;11.45;89.08
16821;BME280;8527;49.740;6.604;2023-02-22T18:52:21;99413.09;;;11.38;89.61
16821;BME280;8527;49.740;6.604;2023-02-22T18:57:19;99409.50;;;11.31;89.49
16821;BME280;8527;49.740;6.604;2023-02-22T19:02:18;99407.66;;;11.16;90.58
16821;BME280;8527;49.740;6.604;2023-02-22T19:07:17;99407.34;;;11.19;90.14
16821;BME280;8527;49.740;6.604;2023-02-22T19:12:19;99410.00;;;10.96;92.06
16821;BME280;8527;49.740;6.604;2023-02-22T19:17:22;99408.44;;;10.87;94.17
16821;BME280;8527;49.740;6.604;2023-02-22T19:22:21;99417.41;;;10.86;94.53
16821;BME280;8527;49.740;6.604;2023-02-22T19:27:23;99411.66;;;10.82;94.80
16821;BME280;8527;49.740;6.604;2023-02-22T19:32:24;99405.78;;;10.87;95.78
16821;BME280;8527;49.740;6.604;2023-02-22T19:37:23;99415.53;;;10.71;97.34
16821;BME280;8527;49.740;6.604;2023-02-22T19:42:24;99419.28;;;10.77;96.66
16821;BME280;8527;49.740;6.604;2023-02-22T19:47:25;99417.69;;;10.67;98.26
16821;BME280;8527;49.740;6.604;2023-02-22T19:52:24;99416.41;;;10.63;99.28
16821;BME280;8527;49.740;6.604;2023-02-22T19:57:28;99422.38;;;10.65;98.70
16821;BME280;8527;49.740;6.604;2023-02-22T20:02:29;99420.97;;;10.54;99.03
16821;BME280;8527;49.740;6.604;2023-02-22T20:07:30;99417.66;;;10.52;99.53
16821;BME280;8527;49.740;6.604;2023-02-22T20:12:36;99417.34;;;10.47;99.92
16821;BME280;8527;49.740;6.604;2023-02-22T20:17:38;99420.38;;;10.44;99.66
16821;BME280;8527;49.740;6.604;2023-02-22T20:22:39;99423.66;;;10.46;99.25
16821;BME280;8527;49.740;6.604;2023-02-22T20:27:41;99421.03;;;10.38;100.00
16821;BME280;8527;49.740;6.604;2023-02-22T20:32:40;99422.84;;;10.37;100.00
16821;BME280;8527;49.740;6.604;2023-02-22T20:37:39;99418.44;;;10.30;100.00
16821;BME280;8527;49.740;6.604;2023-02-22T20:42:41;99423.09;;;10.27;100.00
16821;BME280;8527;49.740;6.604;2023-02-22T20:47:42;99417.78;;;10.27;100.00
16821;BME280;8527;49.740;6.604;2023-02-22T20:52:40;99426.75;;;10.26;100.00
16821;BME280;8527;49.740;6.604;2023-02-22T20:57:42;99427.06;;;10.23;100.00
16821;BME280;8527;49.740;6.604;2023-02-22T21:02:41;99420.13;;;10.22;100.00
16821;BME280;8527;49.740;6.604;2023-02-22T21:07:45;99422.88;;;10.06;100.00
16821;BME280;8527;49.740;6.604;2023-02-22T21:12:49;99419.53;;;10.12;100.00
16821;BME280;8527;49.740;6.604;2023-02-22T21:17:49;99411.75;;;10.10;100.00
16821;BME280;8527;49.740;6.604;2023-02-22T21:22:48;99411.25;;;10.07;100.00
16821;BME280;8527;49.740;6.604;2023-02-22T21:27:49;99407.31;;;10.03;100.00
16821;BME280;8527;49.740;6.604;2023-02-22T21:32:53;99409.31;;;10.01;100.00
16821;BME280;8527;49.740;6.604;2023-02-22T21:37:51;99401.53;;;9.99;100.00
16821;BME280;8527;49.740;6.604;2023-02-22T21:42:52;99399.41;;;9.94;100.00
16821;BME280;8527;49.740;6.604;2023-02-22T21:47:51;99391.16;;;9.89;100.00
16821;BME280;8527;49.740;6.604;2023-02-22T21:52:50;99395.13;;;9.85;100.00
16821;BME280;8527;49.740;6.604;2023-02-22T21:57:48;99390.88;;;9.76;100.00
16821;BME280;8527;49.740;6.604;2023-02-22T22:02:49;99395.19;;;9.77;100.00
16821;BME280;8527;49.740;6.604;2023-02-22T22:07:51;99390.88;;;9.76;100.00
16821;BME280;8527;49.740;6.604;2023-02-22T22:12:52;99390.88;;;9.76;100.00
16821;BME280;8527;49.740;6.604;2023-02-22T22:17:57;99394.34;;;9.76;100.00
16821;BME280;8527;49.740;6.604;2023-02-22T22:23:00;99389.41;;;9.73;100.00
16821;BME280;8527;49.740;6.604;2023-02-22T22:28:03;99387.09;;;9.70;100.00
16821;BME280;8527;49.740;6.604;2023-02-22T22:33:04;99380.81;;;9.71;100.00
16821;BME280;8527;49.740;6.604;2023-02-22T22:38:05;99376.66;;;9.77;100.00
16821;BME280;8527;49.740;6.604;2023-02-22T22:43:04;99381.59;;;9.80;100.00
16821;BME280;8527;49.740;6.604;2023-02-22T22:48:07;99385.78;;;9.66;100.00
16821;BME280;8527;49.740;6.604;2023-02-22T22:53:11;99381.63;;;9.71;100.00
16821;BME280;8527;49.740;6.604;2023-02-22T22:58:10;99382.28;;;9.74;100.00
16821;BME280;8527;49.740;6.604;2023-02-22T23:03:16;99382.94;;;9.76;100.00
16821;BME280;8527;49.740;6.604;2023-02-22T23:08:15;99375.38;;;9.64;100.00
16821;BME280;8527;49.740;6.604;2023-02-22T23:13:15;99374.84;;;9.69;100.00
16821;BME280;8527;49.740;6.604;2023-02-22T23:18:20;99373.53;;;9.65;100.00
16821;BME280;8527;49.740;6.604;2023-02-22T23:23:21;99371.06;;;9.63;100.00
16821;BME280;8527;49.740;6.604;2023-02-22T23:28:21;99361.78;;;9.67;100.00
16821;BME280;8527;49.740;6.604;2023-02-22T23:33:28;99366.16;;;9.52;100.00
16821;BME280;8527;49.740;6.604;2023-02-22T23:38:26;99366.81;;;9.46;100.00
16821;BME280;8527;49.740;6.604;2023-02-22T23:43:24;99365.16;;;9.53;100.00
16821;BME280;8527;49.740;6.604;2023-02-22T23:48:29;99376.41;;;9.47;100.00
16821;BME280;8527;49.740;6.604;2023-02-22T23:53:33;99369.16;;;9.49;100.00
16821;BME280;8527;49.740;6.604;2023-02-22T23:58:36;99375.91;;;9.51;100.00
